Time;durP1;ratioP1;P1;durP2;ratioP2;P2;SDS_P1;SDS_P2;PMS_P1;PMS_P2;Temp;Humidity;BMP_temperature;BMP_pressure;BME280_temperature;BME280_humidity;BME280_pressure;Samples;Min_cycle;Max_cycle;Signal;HPM_P1;HPM_P2
2021/08/08 00:01:48;;;;;;;3.38;1.40;;;17.30;90.60;;;;;;4827556;29;20480;-88
2021/08/08 00:04:13;;;;;;;3.17;1.35;;;17.30;90.70;;;;;;4827220;29;20054;-89
2021/08/08 00:06:40;;;;;;;4.20;1.70;;;17.30;90.80;;;;;;4826489;29;20468;-89
2021/08/08 00:09:07;;;;;;;3.40;1.10;;;17.20;90.70;;;;;;4827185;29;20461;-88
2021/08/08 00:11:33;;;;;;;4.95;1.70;;;17.20;90.80;;;;;;4826470;29;20059;-88
2021/08/08 00:13:59;;;;;;;5.38;1.45;;;17.20;90.90;;;;;;4827130;29;20074;-89
2021/08/08 00:16:28;;;;;;;3.95;1.88;;;17.10;91.00;;;;;;4827232;29;20051;-90
2021/08/08 00:18:54;;;;;;;3.45;1.27;;;17.10;90.90;;;;;;4826249;29;20053;-88
2021/08/08 00:21:20;;;;;;;4.18;1.35;;;17.10;91.10;;;;;;4826225;29;20058;-88
2021/08/08 00:23:46;;;;;;;3.08;1.45;;;17.00;91.10;;;;;;4827133;29;20050;-88
2021/08/08 00:26:12;;;;;;;5.32;1.90;;;17.00;91.20;;;;;;4826369;29;20050;-89
2021/08/08 00:28:37;;;;;;;4.30;1.80;;;17.00;91.20;;;;;;4826598;29;20066;-88
2021/08/08 00:31:03;;;;;;;4.30;1.70;;;17.00;91.20;;;;;;4826797;29;20054;-87
2021/08/08 00:33:29;;;;;;;6.22;1.85;;;17.00;91.20;;;;;;4826118;29;20053;-88
2021/08/08 00:35:54;;;;;;;5.32;1.50;;;17.00;91.20;;;;;;4826928;29;20058;-86
2021/08/08 00:38:20;;;;;;;3.92;1.58;;;16.90;91.40;;;;;;4826766;29;20142;-88
2021/08/08 00:40:46;;;;;;;9.35;1.70;;;16.90;91.30;;;;;;4826046;29;20079;-89
2021/08/08 00:43:11;;;;;;;3.15;1.48;;;16.90;91.20;;;;;;4826673;29;20050;-88
2021/08/08 00:45:37;;;;;;;4.80;1.67;;;16.90;91.30;;;;;;4826883;29;20054;-87
2021/08/08 00:48:04;;;;;;;5.93;1.80;;;16.90;91.40;;;;;;4825703;29;20057;-88
2021/08/08 00:50:31;;;;;;;4.22;1.50;;;16.80;91.40;;;;;;4826762;29;20047;-87
2021/08/08 00:52:57;;;;;;;6.20;2.20;;;16.90;91.50;;;;;;4826557;29;20062;-88
2021/08/08 00:55:22;;;;;;;5.25;1.85;;;16.80;91.60;;;;;;4825986;29;20046;-88
2021/08/08 00:57:48;;;;;;;6.00;1.60;;;16.80;92.10;;;;;;4826602;29;20191;-87
2021/08/08 01:00:14;;;;;;;3.22;1.52;;;16.80;91.80;;;;;;4826502;29;20086;-87
2021/08/08 01:02:47;;;;;;;4.55;1.60;;;16.80;91.80;;;;;;4825663;29;20072;-87
2021/08/08 01:05:15;;;;;;;3.10;1.50;;;16.70;91.70;;;;;;4826332;29;20519;-88
2021/08/08 01:07:51;;;;;;;3.65;1.50;;;16.70;91.70;;;;;;4825527;29;20103;-87
2021/08/08 01:10:17;;;;;;;3.35;1.20;;;16.70;91.80;;;;;;4826509;29;20051;-88
2021/08/08 01:12:45;;;;;;;4.13;1.23;;;16.70;91.80;;;;;;4826362;29;20453;-87
2021/08/08 01:15:11;;;;;;;5.70;1.83;;;16.70;91.60;;;;;;4825649;29;20066;-89
2021/08/08 01:17:38;;;;;;;4.10;1.40;;;16.70;91.70;;;;;;4826225;29;20067;-88
2021/08/08 01:20:10;;;;;;;5.95;2.10;;;16.70;91.80;;;;;;4826275;29;20054;-87
2021/08/08 01:22:43;;;;;;;4.22;1.45;;;16.70;91.80;;;;;;4825804;29;20068;-87
2021/08/08 01:25:09;;;;;;;3.55;1.60;;;16.70;91.90;;;;;;4826211;29;20058;-87
2021/08/08 01:27:38;;;;;;;7.43;1.92;;;16.70;91.90;;;;;;4825869;29;20062;-87
2021/08/08 01:30:04;;;;;;;4.55;1.60;;;16.70;92.10;;;;;;4825336;29;20042;-87
2021/08/08 01:32:33;;;;;;;2.75;1.20;;;16.70;92.10;;;;;;4844932;24;20053;-89
2021/08/08 01:35:03;;;;;;;5.40;2.08;;;16.70;92.10;;;;;;4881321;29;20049;-88
2021/08/08 01:37:30;;;;;;;5.13;1.55;;;16.70;92.10;;;;;;4881313;29;20056;-88
2021/08/08 01:40:22;;;;;;;7.45;2.42;;;16.70;92.20;;;;;;4881131;29;20056;-88
2021/08/08 01:42:52;;;;;;;5.45;1.85;;;16.70;92.30;;;;;;4880601;29;20056;-87
2021/08/08 01:45:19;;;;;;;4.75;1.70;;;16.70;92.30;;;;;;4881230;29;20061;-87
2021/08/08 01:47:50;;;;;;;4.05;1.77;;;16.70;92.30;;;;;;4881263;29;20052;-87
2021/08/08 01:50:17;;;;;;;3.65;1.58;;;16.70;92.10;;;;;;4880529;29;20451;-87
2021/08/08 01:52:43;;;;;;;7.80;2.30;;;16.70;91.90;;;;;;4880644;29;20128;-87
2021/08/08 01:55:10;;;;;;;3.78;1.70;;;16.70;92.20;;;;;;4880802;29;20469;-87
2021/08/08 01:57:36;;;;;;;6.57;2.22;;;16.70;92.20;;;;;;4880112;29;20049;-88
2021/08/08 02:00:06;;;;;;;3.60;1.70;;;16.60;92.30;;;;;;4880854;29;20414;-88
2021/08/08 02:02:32;;;;;;;4.57;1.67;;;16.60;92.10;;;;;;4880797;29;20498;-91
2021/08/08 02:04:58;;;;;;;3.97;1.40;;;16.60;92.10;;;;;;4880226;29;20099;-88
2021/08/08 02:07:23;;;;;;;5.68;1.88;;;16.60;92.20;;;;;;4880835;29;20045;-89
2021/08/08 02:09:49;;;;;;;4.55;1.85;;;16.60;92.20;;;;;;4880856;29;20045;-88
2021/08/08 02:12:15;;;;;;;3.85;1.40;;;16.60;92.30;;;;;;4879850;29;20053;-89
2021/08/08 02:14:41;;;;;;;3.42;1.40;;;16.60;92.00;;;;;;4880661;29;20498;-88
2021/08/08 02:17:07;;;;;;;3.45;1.40;;;16.60;91.60;;;;;;4880795;29;20086;-87
2021/08/08 02:19:32;;;;;;;4.40;1.50;;;16.70;91.70;;;;;;4879877;29;20134;-88
2021/08/08 02:22:00;;;;;;;5.72;2.00;;;16.60;91.90;;;;;;4880696;29;20057;-88
2021/08/08 02:24:25;;;;;;;3.33;1.60;;;16.70;92.20;;;;;;4880502;29;20486;-87
2021/08/08 02:26:51;;;;;;;4.50;1.88;;;16.70;92.20;;;;;;4879901;29;20078;-87
2021/08/08 02:29:17;;;;;;;4.18;1.80;;;16.70;92.10;;;;;;4880461;29;20472;-87
2021/08/08 02:31:44;;;;;;;3.42;1.75;;;16.60;92.00;;;;;;4880504;29;20049;-87
2021/08/08 02:34:13;;;;;;;3.33;1.60;;;16.70;92.10;;;;;;4879467;29;20057;-89
2021/08/08 02:36:39;;;;;;;4.38;1.50;;;16.70;91.80;;;;;;4880643;29;20057;-89
2021/08/08 02:39:04;;;;;;;2.90;1.42;;;16.70;91.70;;;;;;4879751;29;20060;-89
2021/08/08 02:41:30;;;;;;;3.38;1.40;;;16.70;91.70;;;;;;4880478;29;20053;-88
2021/08/08 02:43:56;;;;;;;3.53;1.60;;;16.70;91.80;;;;;;4880377;29;20189;-89
2021/08/08 02:46:22;;;;;;;5.70;2.15;;;16.70;91.80;;;;;;4882964;29;20373;-88
2021/08/08 02:48:48;;;;;;;2.03;1.17;;;16.70;91.80;;;;;;4883803;29;20060;-89
2021/08/08 02:51:14;;;;;;;7.20;1.80;;;16.70;91.70;;;;;;4884046;29;20057;-88
2021/08/08 02:53:40;;;;;;;3.65;1.45;;;16.70;91.80;;;;;;4883473;29;20079;-89
2021/08/08 02:56:05;;;;;;;6.20;3.13;;;16.70;91.60;;;;;;4884129;29;20494;-89
2021/08/08 02:58:31;;;;;;;3.08;1.52;;;16.70;92.00;;;;;;4883968;29;20068;-88
2021/08/08 03:00:57;;;;;;;4.07;1.63;;;16.70;92.00;;;;;;4883210;29;20056;-89
2021/08/08 03:03:23;;;;;;;3.63;1.65;;;16.70;92.00;;;;;;4883768;29;20052;-89
2021/08/08 03:05:49;;;;;;;6.07;2.45;;;16.70;92.00;;;;;;4883883;29;20059;-90
2021/08/08 03:08:17;;;;;;;5.25;2.47;;;16.70;92.00;;;;;;4882980;29;20360;-89
2021/08/08 03:10:46;;;;;;;3.25;1.52;;;16.70;92.00;;;;;;4883662;29;20096;-90
2021/08/08 03:13:11;;;;;;;5.63;2.83;;;16.70;91.80;;;;;;4883721;29;20085;-90
2021/08/08 03:15:38;;;;;;;6.28;2.75;;;16.70;91.80;;;;;;4883013;29;20136;-89
2021/08/08 03:18:03;;;;;;;4.65;2.20;;;16.70;92.00;;;;;;4883621;29;20141;-90
2021/08/08 03:20:29;;;;;;;4.82;2.42;;;16.70;91.80;;;;;;4883697;29;20088;-89
2021/08/08 03:22:55;;;;;;;6.78;2.50;;;16.70;91.80;;;;;;4882940;29;20068;-88
2021/08/08 03:25:21;;;;;;;4.03;2.10;;;16.70;91.80;;;;;;4883460;29;20060;-90
2021/08/08 03:27:50;;;;;;;4.35;2.20;;;16.70;91.80;;;;;;4883133;29;20045;-91
2021/08/08 03:30:16;;;;;;;5.78;2.75;;;16.80;91.90;;;;;;4882614;29;20048;-90
2021/08/08 03:32:42;;;;;;;6.88;2.50;;;16.70;92.00;;;;;;4883093;29;20073;-88
2021/08/08 03:35:08;;;;;;;6.10;3.70;;;16.80;92.00;;;;;;4883380;29;20413;-88
2021/08/08 03:37:34;;;;;;;5.03;2.25;;;16.70;92.20;;;;;;4882797;29;20068;-89
2021/08/08 03:40:00;;;;;;;3.90;2.15;;;16.70;92.10;;;;;;4883500;29;20482;-87
2021/08/08 03:42:26;;;;;;;4.10;1.98;;;16.70;91.80;;;;;;4882393;29;20080;-87
2021/08/08 03:44:52;;;;;;;6.18;3.40;;;16.70;91.40;;;;;;4883192;29;20053;-90
2021/08/08 03:47:19;;;;;;;4.55;2.40;;;16.70;91.60;;;;;;4882771;29;20132;-89
2021/08/08 03:49:45;;;;;;;4.65;2.85;;;16.70;91.90;;;;;;4882447;29;20053;-89
2021/08/08 03:52:10;;;;;;;6.13;3.95;;;16.70;91.90;;;;;;4883214;29;20056;-88
2021/08/08 03:54:36;;;;;;;6.15;3.70;;;16.70;92.10;;;;;;4882936;29;20494;-87
2021/08/08 03:57:02;;;;;;;4.38;2.63;;;16.70;92.20;;;;;;4880920;29;20136;-89
2021/08/08 03:59:27;;;;;;;5.57;3.60;;;16.60;92.10;;;;;;4882758;29;20313;-89
2021/08/08 04:01:53;;;;;;;5.60;2.95;;;16.60;92.00;;;;;;4882952;29;20109;-89
2021/08/08 04:04:18;;;;;;;4.70;3.00;;;16.60;92.10;;;;;;4882195;29;20073;-89
2021/08/08 04:06:44;;;;;;;5.55;3.50;;;16.60;92.00;;;;;;4882556;29;20073;-89
2021/08/08 04:09:10;;;;;;;8.02;4.22;;;16.60;92.10;;;;;;4882742;29;20052;-88
2021/08/08 04:11:36;;;;;;;7.05;3.92;;;16.60;92.20;;;;;;4881963;29;20059;-88
2021/08/08 04:14:02;;;;;;;7.90;3.72;;;16.60;92.20;;;;;;4882690;29;20137;-89
2021/08/08 04:16:28;;;;;;;7.35;3.72;;;16.60;92.40;;;;;;4882576;29;20687;-87
2021/08/08 04:18:54;;;;;;;10.85;4.90;;;16.60;92.40;;;;;;4881749;29;20049;-88
2021/08/08 04:21:20;;;;;;;10.52;6.13;;;16.60;92.60;;;;;;4882395;29;20148;-87
2021/08/08 04:23:46;;;;;;;8.68;4.15;;;16.60;92.90;;;;;;4882478;29;20087;-88
2021/08/08 04:26:12;;;;;;;9.88;5.60;;;16.60;92.60;;;;;;4881460;29;20072;-90
2021/08/08 04:28:40;;;;;;;12.38;6.00;;;16.60;92.80;;;;;;4882303;29;20054;-89
2021/08/08 04:31:08;;;;;;;9.32;4.47;;;16.60;93.00;;;;;;4882195;29;20510;-89
2021/08/08 04:33:35;;;;;;;7.05;4.20;;;16.60;93.00;;;;;;4881469;29;20060;-89
2021/08/08 04:36:01;;;;;;;9.10;5.28;;;16.70;92.90;;;;;;4882443;29;20049;-91
2021/08/08 04:38:28;;;;;;;7.85;5.28;;;16.70;93.00;;;;;;4882473;29;20068;-89
2021/08/08 04:40:53;;;;;;;7.60;5.03;;;16.60;93.20;;;;;;4881201;29;20143;-89
2021/08/08 04:43:19;;;;;;;12.27;6.53;;;16.70;93.20;;;;;;4881868;29;20065;-88
2021/08/08 04:45:45;;;;;;;8.40;4.97;;;16.70;93.50;;;;;;4881354;29;20069;-88
2021/08/08 04:48:10;;;;;;;7.82;6.03;;;16.70;93.40;;;;;;4881938;29;20053;-89
2021/08/08 04:50:36;;;;;;;9.50;5.70;;;16.70;93.50;;;;;;4881996;29;20076;-87
2021/08/08 04:53:02;;;;;;;7.63;4.85;;;16.70;93.50;;;;;;4881100;29;20056;-89
2021/08/08 04:55:27;;;;;;;9.30;5.13;;;16.70;93.40;;;;;;4882173;29;20068;-90
2021/08/08 04:57:53;;;;;;;7.22;4.20;;;16.70;93.40;;;;;;4881855;29;20508;-87
2021/08/08 05:00:19;;;;;;;9.27;5.30;;;16.70;93.30;;;;;;4880502;29;20057;-87
2021/08/08 05:02:46;;;;;;;9.98;5.80;;;16.70;93.50;;;;;;4881531;29;20140;-87
2021/08/08 05:05:12;;;;;;;7.28;4.35;;;16.70;93.70;;;;;;4881430;29;20542;-85
2021/08/08 05:07:39;;;;;;;7.07;4.20;;;16.70;93.70;;;;;;4879540;29;20545;-83
2021/08/08 05:10:07;;;;;;;7.80;4.15;;;16.70;93.60;;;;;;4881082;29;20498;-83
2021/08/08 05:12:32;;;;;;;7.28;4.20;;;16.70;93.50;;;;;;4880730;29;20049;-84
2021/08/08 05:14:58;;;;;;;5.95;4.00;;;16.70;93.60;;;;;;4880249;29;20450;-82
2021/08/08 05:17:24;;;;;;;6.93;3.92;;;16.70;93.50;;;;;;4880712;29;20057;-82
2021/08/08 05:19:50;;;;;;;8.13;3.95;;;16.70;93.60;;;;;;4880466;29;20049;-82
2021/08/08 05:22:16;;;;;;;8.00;3.80;;;16.70;93.60;;;;;;4879892;29;20098;-85
2021/08/08 05:24:41;;;;;;;5.47;3.50;;;16.70;93.70;;;;;;4880966;29;20045;-85
2021/08/08 05:27:07;;;;;;;6.10;3.13;;;16.70;93.70;;;;;;4880834;29;20133;-86
2021/08/08 05:29:33;;;;;;;6.57;3.15;;;16.70;93.50;;;;;;4880338;29;20458;-87
2021/08/08 05:31:59;;;;;;;4.88;2.63;;;16.70;93.60;;;;;;4880636;29;20057;-87
2021/08/08 05:34:24;;;;;;;5.95;2.80;;;16.70;93.50;;;;;;4881083;29;20513;-87
2021/08/08 05:36:50;;;;;;;5.55;2.97;;;16.70;93.60;;;;;;4880061;29;20049;-86
2021/08/08 05:39:19;;;;;;;4.15;2.50;;;16.70;93.40;;;;;;4880604;29;20053;-85
2021/08/08 05:41:45;;;;;;;6.60;2.72;;;16.70;93.60;;;;;;4880815;29;20049;-88
2021/08/08 05:44:10;;;;;;;6.95;2.80;;;16.70;93.70;;;;;;4879901;29;20048;-85
2021/08/08 05:46:36;;;;;;;5.80;2.60;;;16.70;93.70;;;;;;4880959;29;20053;-87
2021/08/08 05:49:02;;;;;;;6.80;2.78;;;16.70;93.90;;;;;;4880212;29;20048;-86
2021/08/08 05:51:29;;;;;;;5.13;2.72;;;16.70;93.90;;;;;;4880761;29;20061;-88
2021/08/08 05:53:55;;;;;;;6.30;2.58;;;16.70;94.10;;;;;;4880859;29;20529;-86
2021/08/08 05:56:20;;;;;;;6.28;2.63;;;16.70;94.10;;;;;;4879511;29;20140;-87
2021/08/08 05:58:46;;;;;;;4.43;2.45;;;16.70;94.20;;;;;;4880526;29;20207;-87
2021/08/08 06:01:11;;;;;;;6.57;2.65;;;16.70;94.10;;;;;;4880475;29;20056;-86
2021/08/08 06:03:37;;;;;;;7.65;2.67;;;16.70;94.00;;;;;;4879462;29;20056;-85
2021/08/08 06:06:03;;;;;;;4.65;2.40;;;16.70;94.00;;;;;;4880351;29;20508;-86
2021/08/08 06:08:28;;;;;;;4.65;2.10;;;16.70;94.10;;;;;;4880059;29;20064;-82
2021/08/08 06:10:54;;;;;;;5.60;2.22;;;16.70;94.20;;;;;;4879021;29;20053;-82
2021/08/08 06:13:20;;;;;;;6.30;2.22;;;16.70;94.30;;;;;;4879976;29;20057;-82
2021/08/08 06:15:45;;;;;;;6.65;2.10;;;16.70;94.40;;;;;;4879813;29;20474;-82
2021/08/08 06:18:11;;;;;;;4.47;1.80;;;16.70;94.30;;;;;;4878937;29;20063;-81
2021/08/08 06:20:37;;;;;;;4.00;2.00;;;16.70;94.00;;;;;;4881613;29;20057;-81
2021/08/08 06:23:03;;;;;;;4.72;1.80;;;16.70;94.00;;;;;;4883561;29;20049;-81
2021/08/08 06:25:28;;;;;;;6.68;2.03;;;16.70;94.10;;;;;;4882589;29;20057;-81
2021/08/08 06:27:54;;;;;;;5.68;1.95;;;16.70;94.20;;;;;;4883651;29;20057;-80
2021/08/08 06:30:20;;;;;;;5.03;1.85;;;16.70;94.30;;;;;;4883456;29;20463;-81
2021/08/08 06:32:45;;;;;;;8.52;2.53;;;16.70;94.20;;;;;;4882533;29;20065;-80
2021/08/08 06:35:11;;;;;;;5.20;2.15;;;16.60;94.20;;;;;;4883363;29;20045;-82
2021/08/08 06:37:43;;;;;;;5.03;1.95;;;16.60;94.20;;;;;;4883484;29;20116;-81
2021/08/08 06:40:09;;;;;;;6.05;2.38;;;16.60;94.30;;;;;;4882402;29;20060;-81
2021/08/08 06:42:35;;;;;;;5.40;2.13;;;16.60;94.30;;;;;;4883375;29;20076;-82
2021/08/08 06:45:01;;;;;;;6.53;2.55;;;16.60;94.30;;;;;;4883291;29;20092;-81
2021/08/08 06:47:26;;;;;;;5.80;2.25;;;16.60;94.30;;;;;;4882606;29;20528;-80
2021/08/08 06:49:52;;;;;;;9.27;2.53;;;16.50;94.30;;;;;;4882917;29;20059;-80
2021/08/08 06:52:18;;;;;;;5.40;2.22;;;16.60;94.50;;;;;;4882371;29;20139;-79
2021/08/08 06:54:43;;;;;;;9.63;2.28;;;16.50;94.30;;;;;;4883072;29;20088;-81
2021/08/08 06:57:09;;;;;;;6.18;2.15;;;16.50;94.40;;;;;;4883067;29;20087;-81
2021/08/08 06:59:39;;;;;;;6.07;2.25;;;16.40;94.40;;;;;;4881969;29;20120;-81
2021/08/08 07:02:05;;;;;;;7.82;2.70;;;16.40;94.50;;;;;;4883050;29;20052;-82
2021/08/08 07:04:30;;;;;;;7.00;2.60;;;16.40;94.50;;;;;;4882867;29;20053;-82
2021/08/08 07:06:56;;;;;;;9.68;3.13;;;16.40;94.50;;;;;;4881962;29;20104;-83
2021/08/08 07:09:21;;;;;;;9.68;3.03;;;16.40;94.60;;;;;;4881937;29;20064;-83
2021/08/08 07:11:47;;;;;;;9.13;3.20;;;16.40;94.60;;;;;;4882917;29;20044;-85
2021/08/08 07:14:13;;;;;;;13.18;4.13;;;16.40;94.70;;;;;;4882338;29;20056;-84
2021/08/08 07:16:38;;;;;;;13.20;4.65;;;16.50;94.80;;;;;;4882653;29;20490;-83
2021/08/08 07:19:04;;;;;;;9.95;3.58;;;16.50;94.90;;;;;;4882680;29;20403;-85
2021/08/08 07:21:31;;;;;;;11.98;3.95;;;16.50;94.90;;;;;;4881756;29;20105;-85
2021/08/08 07:23:58;;;;;;;10.45;3.35;;;16.50;94.80;;;;;;4883207;29;20056;-84
2021/08/08 07:26:23;;;;;;;11.95;4.45;;;16.60;94.70;;;;;;4882740;29;20084;-84
2021/08/08 07:28:49;;;;;;;12.07;4.47;;;16.60;94.80;;;;;;4880761;29;20081;-84
2021/08/08 07:31:15;;;;;;;15.75;5.57;;;16.60;94.70;;;;;;4882120;29;20455;-84
2021/08/08 07:33:41;;;;;;;13.02;3.58;;;16.60;94.90;;;;;;4882060;29;20072;-83
2021/08/08 07:36:07;;;;;;;15.25;5.72;;;16.60;94.70;;;;;;4881362;29;20436;-84
2021/08/08 07:38:32;;;;;;;14.90;5.10;;;16.70;94.90;;;;;;4882375;29;20102;-85
2021/08/08 07:40:58;;;;;;;17.65;5.30;;;16.70;94.80;;;;;;4882156;29;20148;-84
2021/08/08 07:43:23;;;;;;;19.42;5.10;;;16.70;94.90;;;;;;4881835;29;20045;-85
2021/08/08 07:45:49;;;;;;;16.25;5.00;;;16.70;94.90;;;;;;4882419;29;20064;-85
2021/08/08 07:48:15;;;;;;;16.10;5.15;;;16.70;94.70;;;;;;4882379;29;20049;-86
2021/08/08 07:50:40;;;;;;;14.40;5.50;;;16.80;94.80;;;;;;4881736;29;20053;-84
2021/08/08 07:53:06;;;;;;;16.65;5.63;;;16.80;94.90;;;;;;4882103;29;20053;-85
2021/08/08 07:55:32;;;;;;;13.15;4.72;;;16.80;94.90;;;;;;4881345;29;20075;-84
2021/08/08 07:57:57;;;;;;;17.95;5.53;;;16.80;94.70;;;;;;4882069;29;20052;-85
2021/08/08 08:00:23;;;;;;;17.23;5.90;;;16.90;94.70;;;;;;4882072;29;20072;-84
2021/08/08 08:02:49;;;;;;;10.02;3.70;;;16.90;94.60;;;;;;4880990;29;20131;-85
2021/08/08 08:05:14;;;;;;;19.02;5.65;;;16.90;94.40;;;;;;4882027;29;20056;-84
2021/08/08 08:07:40;;;;;;;13.77;4.95;;;16.90;94.60;;;;;;4881956;29;20085;-84
2021/08/08 08:10:06;;;;;;;16.90;5.68;;;16.90;94.60;;;;;;4881879;29;20053;-85
2021/08/08 08:12:31;;;;;;;15.65;6.07;;;16.90;94.90;;;;;;4881866;29;20059;-85
2021/08/08 08:14:57;;;;;;;20.05;5.75;;;17.00;95.30;;;;;;4881718;29;20053;-84
2021/08/08 08:17:23;;;;;;;18.30;5.35;;;17.10;95.30;;;;;;4880754;29;20088;-83
2021/08/08 08:19:49;;;;;;;15.52;4.82;;;17.10;95.20;;;;;;4881817;29;20092;-83
2021/08/08 08:22:16;;;;;;;16.50;5.32;;;17.20;94.90;;;;;;4881492;29;20406;-84
2021/08/08 08:24:42;;;;;;;17.88;5.25;;;17.20;94.90;;;;;;4880644;29;20414;-84
2021/08/08 08:27:08;;;;;;;14.27;4.75;;;17.30;94.90;;;;;;4881588;29;20049;-83
2021/08/08 08:29:34;;;;;;;13.05;4.63;;;17.40;94.90;;;;;;4881616;29;20053;-85
2021/08/08 08:32:00;;;;;;;18.75;4.85;;;17.40;94.80;;;;;;4880668;29;20439;-84
2021/08/08 08:34:25;;;;;;;16.42;4.30;;;17.50;94.60;;;;;;4881130;29;20057;-84
2021/08/08 08:36:51;;;;;;;20.05;4.60;;;17.60;94.50;;;;;;4881616;29;20060;-84
2021/08/08 08:39:16;;;;;;;12.48;3.97;;;17.60;94.40;;;;;;4880950;29;20064;-85
2021/08/08 08:41:42;;;;;;;14.07;4.43;;;17.70;94.20;;;;;;4881497;29;20135;-85
2021/08/08 08:44:08;;;;;;;12.60;3.72;;;17.70;94.00;;;;;;4880859;29;20056;-84
2021/08/08 08:46:36;;;;;;;13.10;3.67;;;17.70;93.80;;;;;;4880676;29;20081;-84
2021/08/08 08:49:02;;;;;;;13.85;3.80;;;17.80;93.80;;;;;;4881388;29;20509;-85
2021/08/08 08:51:35;;;;;;;9.90;3.25;;;17.80;93.50;;;;;;4881457;29;20502;-85
2021/08/08 08:54:01;;;;;;;;;;;17.80;93.50;;;;;;4881111;29;20045;-84
2021/08/08 08:56:28;;;;;;;12.80;3.42;;;17.70;93.30;;;;;;4881505;29;19924;-84
2021/08/08 08:58:55;;;;;;;16.13;3.63;;;17.70;93.50;;;;;;4880682;29;20053;-83
2021/08/08 09:01:20;;;;;;;11.82;3.63;;;17.70;93.50;;;;;;4880959;29;20086;-84
2021/08/08 09:03:46;;;;;;;10.88;3.17;;;17.70;93.50;;;;;;4881421;29;20056;-86
2021/08/08 09:06:12;;;;;;;12.75;3.50;;;17.80;93.50;;;;;;4880578;29;20924;-84
2021/08/08 09:08:39;;;;;;;12.68;3.42;;;17.80;93.30;;;;;;4881405;29;20057;-85
2021/08/08 09:11:09;;;;;;;12.80;3.28;;;17.80;93.20;;;;;;4881386;29;20052;-85
2021/08/08 09:13:48;;;;;;;14.15;3.35;;;17.80;93.10;;;;;;4880306;29;20053;-86
2021/08/08 09:16:15;;;;;;;15.25;3.92;;;17.80;92.90;;;;;;4880924;29;20064;-83
2021/08/08 09:18:55;;;;;;;15.23;3.70;;;17.80;93.00;;;;;;4881073;29;20500;-85
2021/08/08 09:21:23;;;;;;;16.10;3.90;;;17.70;92.90;;;;;;4880136;29;20059;-83
2021/08/08 09:24:01;;;;;;;13.80;3.72;;;17.70;93.00;;;;;;4881042;29;20077;-84
2021/08/08 09:26:31;;;;;;;18.88;4.20;;;17.80;93.00;;;;;;4881116;29;20132;-85
2021/08/08 09:29:24;;;;;;;14.63;4.18;;;17.80;93.00;;;;;;4879900;29;20060;-85
2021/08/08 09:31:50;;;;;;;15.85;4.30;;;17.80;93.10;;;;;;4879694;29;20133;-83
2021/08/08 09:34:23;;;;;;;19.88;4.53;;;17.90;93.40;;;;;;4879858;29;20080;-84
2021/08/08 09:36:49;;;;;;;17.85;4.45;;;18.00;93.30;;;;;;4880927;29;20084;-84
2021/08/08 09:39:35;;;;;;;17.77;4.07;;;18.10;93.10;;;;;;4880816;29;20490;-84
2021/08/08 09:42:16;;;;;;;17.30;4.95;;;18.10;92.90;;;;;;4879967;29;20073;-85
2021/08/08 09:45:03;;;;;;;18.40;4.43;;;18.20;92.70;;;;;;4880611;29;20068;-83
2021/08/08 09:47:38;;;;;;;20.52;5.15;;;18.20;92.60;;;;;;4880442;29;20055;-84
2021/08/08 09:50:06;;;;;;;19.15;4.38;;;18.40;92.80;;;;;;4879718;29;20061;-84
2021/08/08 09:52:33;;;;;;;17.35;3.90;;;18.40;92.60;;;;;;4880683;29;20049;-85
2021/08/08 09:54:59;;;;;;;16.20;4.40;;;18.50;92.20;;;;;;4880075;29;20538;-84
2021/08/08 09:57:25;;;;;;;18.63;4.53;;;18.60;91.90;;;;;;4879813;29;20145;-84
2021/08/08 09:59:52;;;;;;;17.40;3.97;;;18.60;91.50;;;;;;4880364;29;20053;-84
2021/08/08 10:02:19;;;;;;;18.83;4.25;;;18.70;91.10;;;;;;4879548;29;20056;-84
2021/08/08 10:04:47;;;;;;;14.57;3.58;;;18.70;90.80;;;;;;4880313;29;20101;-84
2021/08/08 10:07:16;;;;;;;12.27;3.38;;;18.70;90.70;;;;;;4880392;29;20558;-85
2021/08/08 10:09:43;;;;;;;14.68;4.00;;;18.70;90.70;;;;;;4879448;29;20049;-85
2021/08/08 10:12:43;;;;;;;21.63;4.28;;;18.80;90.80;;;;;;4880540;29;20139;-84
2021/08/08 10:15:09;;;;;;;20.38;4.20;;;18.80;90.50;;;;;;4880193;29;20087;-85
2021/08/08 10:17:36;;;;;;;15.60;3.45;;;18.80;90.50;;;;;;4879432;29;20076;-85
2021/08/08 10:20:03;;;;;;;15.00;3.75;;;18.90;89.70;;;;;;4880021;29;20459;-86
2021/08/08 10:22:32;;;;;;;16.88;3.92;;;18.90;89.70;;;;;;4880161;29;20064;-83
2021/08/08 10:24:59;;;;;;;13.95;3.35;;;18.90;89.50;;;;;;4879041;29;20053;-83
2021/08/08 10:27:25;;;;;;;15.52;3.80;;;18.90;89.40;;;;;;4880167;29;20053;-83
2021/08/08 10:29:54;;;;;;;19.08;3.95;;;19.00;89.70;;;;;;4880221;29;20462;-83
2021/08/08 10:32:27;;;;;;;14.38;3.50;;;19.00;89.70;;;;;;4879076;29;20049;-83
2021/08/08 10:34:53;;;;;;;13.13;3.70;;;19.00;89.30;;;;;;4879986;29;20065;-85
2021/08/08 10:37:24;;;;;;;17.73;4.30;;;19.10;88.70;;;;;;4880339;29;20049;-84
2021/08/08 10:39:50;;;;;;;16.05;3.20;;;19.20;89.00;;;;;;4879695;29;20045;-85
2021/08/08 10:42:17;;;;;;;14.38;3.42;;;19.20;88.70;;;;;;4879876;29;20410;-85
2021/08/08 10:44:49;;;;;;;15.38;3.58;;;19.30;88.30;;;;;;4879050;29;20151;-85
2021/08/08 10:47:30;;;;;;;14.77;3.35;;;19.30;88.40;;;;;;4880107;29;20056;-84
2021/08/08 10:50:15;;;;;;;13.25;3.65;;;19.30;86.90;;;;;;4880022;29;20057;-84
2021/08/08 10:52:43;;;;;;;14.00;3.42;;;19.30;86.70;;;;;;4879182;29;20049;-84
2021/08/08 10:55:25;;;;;;;14.82;3.63;;;19.30;86.80;;;;;;4880026;29;20057;-84
2021/08/08 10:57:51;;;;;;;18.53;3.83;;;19.30;86.70;;;;;;4879909;29;20504;-86
2021/08/08 11:00:17;;;;;;;16.23;3.70;;;19.30;87.40;;;;;;4878957;29;20105;-84
2021/08/08 11:02:47;;;;;;;13.65;3.80;;;19.30;88.10;;;;;;4879592;29;20045;-84
2021/08/08 11:05:17;;;;;;;16.65;3.63;;;19.20;88.80;;;;;;4879729;29;20494;-85
2021/08/08 11:07:48;;;;;;;16.00;3.30;;;19.20;89.40;;;;;;4882611;29;20049;-85
2021/08/08 11:10:27;;;;;;;12.30;3.28;;;19.10;89.10;;;;;;4883569;29;20080;-85
2021/08/08 11:12:53;;;;;;;14.90;3.20;;;19.10;88.60;;;;;;4882446;29;20490;-85
2021/08/08 11:15:30;;;;;;;11.40;3.00;;;19.00;89.40;;;;;;4883468;29;20060;-86
2021/08/08 11:17:58;;;;;;;10.90;2.90;;;19.00;89.80;;;;;;4883445;29;20056;-85
2021/08/08 11:20:27;;;;;;;11.70;2.97;;;19.00;90.10;;;;;;4882361;29;20113;-85
2021/08/08 11:22:58;;;;;;;12.35;3.00;;;18.90;89.80;;;;;;4883485;29;20057;-85
2021/08/08 11:25:26;;;;;;;10.13;3.20;;;18.90;89.70;;;;;;4882857;29;20458;-85
2021/08/08 11:27:55;;;;;;;12.07;2.90;;;18.90;89.50;;;;;;4882434;29;20060;-85
2021/08/08 11:30:21;;;;;;;9.23;2.95;;;18.90;89.40;;;;;;4882920;29;20061;-86
2021/08/08 11:32:54;;;;;;;10.45;2.80;;;18.90;89.90;;;;;;4883019;29;20056;-86
2021/08/08 11:35:27;;;;;;;13.07;3.20;;;19.00;90.10;;;;;;4882390;29;20053;-85
2021/08/08 11:37:53;;;;;;;13.95;3.35;;;19.00;90.20;;;;;;4882911;29;20466;-86
2021/08/08 11:40:41;;;;;;;14.63;3.60;;;19.00;90.10;;;;;;4882635;29;20504;-86
2021/08/08 11:43:06;;;;;;;13.35;3.35;;;19.00;90.00;;;;;;4883210;29;20410;-86
2021/08/08 11:45:44;;;;;;;15.98;3.70;;;19.00;90.20;;;;;;4883140;29;20049;-86
2021/08/08 11:48:11;;;;;;;12.88;3.03;;;19.00;90.20;;;;;;4882319;29;20076;-87
2021/08/08 11:50:37;;;;;;;12.73;3.47;;;19.00;90.40;;;;;;4882680;29;20055;-85
2021/08/08 11:53:05;;;;;;;15.68;3.67;;;18.90;90.60;;;;;;4882759;29;20446;-87
2021/08/08 11:55:33;;;;;;;13.93;3.83;;;18.90;90.60;;;;;;4881788;29;20505;-86
2021/08/08 11:58:09;;;;;;;11.35;3.65;;;18.90;90.90;;;;;;4882625;29;20526;-86
2021/08/08 12:00:37;;;;;;;10.57;3.40;;;18.90;91.00;;;;;;4882726;29;20064;-88
2021/08/08 12:03:05;;;;;;;13.82;3.80;;;18.90;91.20;;;;;;4881694;29;20087;-88
2021/08/08 12:05:32;;;;;;;15.02;3.78;;;19.00;91.50;;;;;;4882248;29;20553;-86
2021/08/08 12:07:59;;;;;;;14.32;4.00;;;19.10;91.50;;;;;;4882290;29;20053;-86
2021/08/08 12:10:27;;;;;;;15.27;3.47;;;19.20;91.20;;;;;;4881625;29;20053;-86
2021/08/08 12:12:52;;;;;;;13.70;3.60;;;19.20;90.50;;;;;;4882283;29;20053;-85
2021/08/08 12:15:30;;;;;;;12.05;3.10;;;19.20;90.30;;;;;;4882132;29;20056;-86
2021/08/08 12:17:58;;;;;;;13.45;3.10;;;19.20;89.80;;;;;;4880516;29;20065;-87
2021/08/08 12:20:38;;;;;;;13.73;3.28;;;19.30;90.30;;;;;;4882075;29;20379;-85
2021/08/08 12:23:13;;;;;;;14.70;3.13;;;19.30;89.80;;;;;;4881258;29;20057;-84
2021/08/08 12:25:42;;;;;;;14.00;3.30;;;19.30;88.50;;;;;;4882055;29;20057;-84
2021/08/08 12:28:08;;;;;;;13.27;3.00;;;19.40;89.00;;;;;;4881731;29;20136;-85
2021/08/08 12:30:34;;;;;;;14.52;3.15;;;19.40;88.10;;;;;;4881268;29;20454;-85
2021/08/08 12:33:04;;;;;;;13.95;3.45;;;19.50;87.60;;;;;;4881672;29;20129;-87
2021/08/08 12:35:38;;;;;;;13.15;3.42;;;19.50;86.30;;;;;;4881810;29;20049;-85
2021/08/08 12:38:13;;;;;;;13.45;3.10;;;19.50;86.40;;;;;;4881238;29;20486;-85
2021/08/08 12:40:44;;;;;;;10.80;3.05;;;19.60;85.30;;;;;;4881434;29;20053;-84
2021/08/08 12:43:15;;;;;;;12.60;2.60;;;19.60;84.90;;;;;;4881751;29;20053;-84
2021/08/08 12:45:41;;;;;;;10.70;2.90;;;19.60;84.90;;;;;;4880891;29;20052;-84